createdAt,value
2018-07-12T00:02:06.315Z,18.07
2018-07-12T00:04:34.931Z,19.10
2018-07-12T00:07:03.671Z,18.50
2018-07-12T00:09:32.170Z,19.40
2018-07-12T00:12:00.725Z,21.87
2018-07-12T00:14:29.433Z,22.80
2018-07-12T00:16:58.000Z,21.87
2018-07-12T00:19:26.483Z,20.43
2018-07-12T00:21:54.935Z,20.30
2018-07-12T00:24:23.488Z,21.17
2018-07-12T00:26:52.234Z,21.77
2018-07-12T00:29:20.728Z,23.33
2018-07-12T00:31:49.385Z,21.93
2018-07-12T00:34:18.024Z,22.77
2018-07-12T00:36:46.930Z,23.80
2018-07-12T00:39:15.574Z,23.50
2018-07-12T00:41:44.175Z,23.00
2018-07-12T00:44:12.774Z,22.23
2018-07-12T00:46:41.314Z,22.87
2018-07-12T00:49:09.801Z,23.23
2018-07-12T00:51:38.272Z,27.27
2018-07-12T00:54:07.021Z,23.67
2018-07-12T00:56:35.635Z,23.97
2018-07-12T00:59:04.292Z,22.73
2018-07-12T01:01:32.747Z,22.97
2018-07-12T01:04:01.421Z,22.17
2018-07-12T01:06:30.218Z,24.90
2018-07-12T01:08:58.843Z,23.73
2018-07-12T01:11:27.351Z,22.97
2018-07-12T01:13:56.092Z,24.73
2018-07-12T01:16:24.546Z,28.23
2018-07-12T01:18:53.034Z,25.10
2018-07-12T01:21:21.515Z,28.63
2018-07-12T01:23:50.032Z,27.27
2018-07-12T01:26:18.467Z,25.77
2018-07-12T01:28:47.238Z,25.77
2018-07-12T01:31:15.838Z,26.83
2018-07-12T01:33:44.357Z,26.73
2018-07-12T01:36:13.453Z,25.67
2018-07-12T01:38:41.995Z,25.03
2018-07-12T01:41:10.728Z,26.00
2018-07-12T01:43:39.505Z,25.27
2018-07-12T01:46:08.187Z,23.97
2018-07-12T01:48:36.830Z,23.70
2018-07-12T01:51:05.381Z,25.87
2018-07-12T01:53:33.922Z,23.40
2018-07-12T01:56:02.365Z,22.23
2018-07-12T01:58:30.854Z,22.17
2018-07-12T02:00:59.643Z,21.03
2018-07-12T02:03:28.130Z,20.47
2018-07-12T02:05:56.761Z,22.00
2018-07-12T02:08:25.270Z,22.63
2018-07-12T02:10:53.883Z,19.33
2018-07-12T02:13:22.479Z,18.27
2018-07-12T02:15:50.998Z,18.00
2018-07-12T02:18:19.584Z,17.97
2018-07-12T02:20:48.466Z,18.60
2018-07-12T02:23:16.904Z,18.33
2018-07-12T02:25:45.534Z,18.00
2018-07-12T02:28:14.023Z,18.27
2018-07-12T02:30:42.452Z,17.80
2018-07-12T02:33:10.928Z,19.40
2018-07-12T02:35:39.463Z,18.87
2018-07-12T02:38:08.541Z,19.83
2018-07-12T02:40:37.073Z,23.07
2018-07-12T02:43:05.928Z,23.90
2018-07-12T02:45:34.723Z,19.13
2018-07-12T02:48:03.364Z,20.63
2018-07-12T02:50:31.934Z,23.67
2018-07-12T02:53:00.444Z,26.53
2018-07-12T02:55:28.911Z,29.27
2018-07-12T02:57:57.476Z,24.50
2018-07-12T03:00:25.966Z,25.90
2018-07-12T03:02:54.409Z,27.47
2018-07-12T03:05:23.310Z,29.53
2018-07-12T03:07:52.160Z,25.93
2018-07-12T03:10:20.589Z,30.13
2018-07-12T03:12:49.071Z,30.70
2018-07-12T03:15:17.784Z,27.07
2018-07-12T03:17:46.247Z,25.23
2018-07-12T03:20:14.790Z,25.77
2018-07-12T03:22:43.267Z,27.57
2018-07-12T03:25:11.709Z,29.73
2018-07-12T03:27:40.191Z,40.57
2018-07-12T03:30:08.719Z,32.07
2018-07-12T03:32:37.273Z,32.70
2018-07-12T03:35:05.830Z,28.93
2018-07-12T03:37:34.537Z,29.30
2018-07-12T03:40:02.949Z,30.20
2018-07-12T03:42:31.630Z,30.93
2018-07-12T03:45:00.430Z,32.73
2018-07-12T03:47:28.953Z,30.87
2018-07-12T03:49:57.786Z,29.67
2018-07-12T03:52:26.604Z,35.33
2018-07-12T03:54:56.049Z,41.00
2018-07-12T03:57:24.530Z,38.93
2018-07-12T03:59:53.054Z,35.17
2018-07-12T04:02:21.566Z,30.87
2018-07-12T04:04:50.135Z,34.23
2018-07-12T04:07:18.561Z,33.83
2018-07-12T04:09:47.068Z,34.37
2018-07-12T04:12:15.779Z,32.50
2018-07-12T04:14:44.324Z,32.10
2018-07-12T04:17:17.194Z,30.40
2018-07-12T04:19:45.687Z,43.27
2018-07-12T04:22:14.170Z,41.77
2018-07-12T04:24:42.745Z,42.00
2018-07-12T04:27:11.314Z,35.27
2018-07-12T04:29:39.745Z,29.67
2018-07-12T04:32:08.249Z,24.67
2018-07-12T04:34:36.729Z,24.63
2018-07-12T04:37:05.466Z,28.90
2018-07-12T04:39:34.265Z,27.83
2018-07-12T04:42:02.764Z,29.97
2018-07-12T04:44:31.397Z,35.43
2018-07-12T04:46:59.857Z,37.30
2018-07-12T04:49:28.379Z,30.40
2018-07-12T04:51:57.747Z,26.70
2018-07-12T04:54:26.666Z,33.77
2018-07-12T04:56:55.172Z,28.67
2018-07-12T04:59:24.107Z,25.73
2018-07-12T05:01:52.532Z,29.47
2018-07-12T05:04:21.013Z,33.13
2018-07-12T05:06:49.513Z,58.50
2018-07-12T05:09:18.024Z,32.40
2018-07-12T05:11:46.773Z,14.03
2018-07-12T05:14:15.182Z,19.20
2018-07-12T05:16:43.754Z,34.93
2018-07-12T05:19:12.263Z,30.73
2018-07-12T05:21:40.685Z,25.60
2018-07-12T05:24:09.282Z,31.70
2018-07-12T05:26:37.917Z,27.07
2018-07-12T05:29:06.388Z,33.83
2018-07-12T05:31:34.880Z,28.13
2018-07-12T05:34:03.417Z,17.23
2018-07-12T05:37:05.866Z,41.90
2018-07-12T05:39:36.142Z,60.67
2018-07-12T05:42:06.568Z,23.40
2018-07-12T05:44:37.062Z,39.40
2018-07-12T05:47:07.270Z,23.70
2018-07-12T05:49:37.900Z,34.60
2018-07-12T05:52:08.406Z,13.17
2018-07-12T05:54:39.096Z,31.80
2018-07-12T05:57:10.043Z,113.33
2018-07-12T05:59:40.695Z,53.57
2018-07-12T06:02:19.472Z,82.43
2018-07-12T06:04:50.431Z,80.00
2018-07-12T06:07:26.051Z,74.77
2018-07-12T06:09:56.067Z,75.10
2018-07-12T06:12:26.527Z,28.20
2018-07-12T06:14:57.094Z,22.87
2018-07-12T06:17:27.643Z,26.20
2018-07-12T06:19:57.594Z,40.37
2018-07-12T06:22:28.307Z,97.93
2018-07-12T06:24:58.963Z,32.57
2018-07-12T06:27:29.642Z,38.63
2018-07-12T06:30:00.402Z,35.07
2018-07-12T06:32:30.918Z,40.73
2018-07-12T06:35:01.427Z,26.33
2018-07-12T06:37:32.177Z,31.07
2018-07-12T06:40:02.775Z,51.00
2018-07-12T06:42:33.301Z,46.50
2018-07-12T06:45:04.058Z,20.13
2018-07-12T06:47:34.635Z,29.20
2018-07-12T06:50:05.571Z,25.73
2018-07-12T06:52:36.135Z,15.87
2018-07-12T06:55:06.929Z,19.33
2018-07-12T06:57:37.514Z,24.53
2018-07-12T07:00:08.203Z,26.50
2018-07-12T07:02:39.714Z,40.77
2018-07-12T07:05:10.272Z,38.70
2018-07-12T07:07:48.725Z,22.87
2018-07-12T07:10:19.333Z,29.43
2018-07-12T07:12:49.892Z,15.77
2018-07-12T07:15:20.433Z,15.57
2018-07-12T07:17:51.371Z,25.87
2018-07-12T07:20:21.300Z,13.47
2018-07-12T07:22:52.409Z,20.97
2018-07-12T07:25:24.059Z,20.80
2018-07-12T07:27:54.617Z,22.23
2018-07-12T07:30:25.612Z,19.77
2018-07-12T07:32:56.172Z,27.87
2018-07-12T07:35:26.837Z,22.70
2018-07-12T07:37:56.757Z,16.43
2018-07-12T07:40:28.172Z,16.73
2018-07-12T07:42:58.831Z,18.23
2018-07-12T07:45:29.418Z,15.60
2018-07-12T07:48:00.391Z,11.67
2018-07-12T07:50:30.873Z,26.17
2018-07-12T07:53:02.558Z,18.67
2018-07-12T07:55:33.207Z,19.27
2018-07-12T07:58:03.786Z,19.03
2018-07-12T08:00:34.338Z,16.70
2018-07-12T08:03:04.307Z,12.80
2018-07-12T08:05:34.855Z,17.80
2018-07-12T08:08:05.797Z,17.80
2018-07-12T08:10:36.386Z,15.93
2018-07-12T08:13:06.364Z,19.93
2018-07-12T08:15:36.855Z,28.10
2018-07-12T08:18:07.589Z,17.23
2018-07-12T08:20:38.234Z,40.83
2018-07-12T08:23:09.278Z,34.10
2018-07-12T08:25:40.036Z,12.30
2018-07-12T08:28:22.541Z,24.43
2018-07-12T08:30:53.766Z,26.07
2018-07-12T08:33:25.611Z,22.93
2018-07-12T08:35:56.536Z,21.73
2018-07-12T08:38:27.010Z,20.13
2018-07-12T08:40:57.631Z,11.77
2018-07-12T08:43:28.592Z,10.93
2018-07-12T08:46:00.268Z,24.63
2018-07-12T08:48:31.159Z,22.20
2018-07-12T08:51:01.932Z,16.63
2018-07-12T08:53:32.607Z,15.20
2018-07-12T08:56:03.119Z,11.40
2018-07-12T08:58:34.283Z,12.20
2018-07-12T09:01:04.765Z,20.03
2018-07-12T09:03:34.651Z,16.53
2018-07-12T09:06:06.062Z,11.70
2018-07-12T09:08:38.003Z,17.03
2018-07-12T09:11:08.701Z,19.90
2018-07-12T09:13:39.449Z,15.13
2018-07-12T09:16:10.054Z,13.40
2018-07-12T09:18:40.815Z,18.53
2018-07-12T09:21:11.632Z,13.30
2018-07-12T09:23:42.203Z,21.40
2018-07-12T09:26:12.917Z,30.77
2018-07-12T09:28:43.450Z,36.87
2018-07-12T09:31:13.958Z,22.23
2018-07-12T09:33:44.852Z,33.43
2018-07-12T09:36:14.781Z,37.23
2018-07-12T09:38:46.909Z,33.27
2018-07-12T09:41:17.990Z,21.23
2018-07-12T09:43:49.833Z,13.63
2018-07-12T09:46:20.005Z,29.40
2018-07-12T09:48:51.657Z,20.43
2018-07-12T09:51:23.134Z,38.73
2018-07-12T09:53:54.493Z,18.30
2018-07-12T09:56:34.587Z,30.57
2018-07-12T09:59:05.468Z,13.10
2018-07-12T10:02:41.038Z,13.63
2018-07-12T10:05:17.168Z,10.90
2018-07-12T10:07:55.621Z,11.40
2018-07-12T10:10:30.198Z,18.43
2018-07-12T10:13:05.745Z,22.70
2018-07-12T10:15:41.125Z,17.67
2018-07-12T10:18:17.980Z,14.00
2018-07-12T10:20:48.528Z,19.77
2018-07-12T10:23:19.667Z,14.83
2018-07-12T10:25:50.469Z,13.23
2018-07-12T10:28:21.141Z,17.03
2018-07-12T10:30:51.907Z,24.43
2018-07-12T10:33:22.850Z,19.33
2018-07-12T10:35:53.729Z,15.77
2018-07-12T10:38:24.571Z,9.93
2018-07-12T10:40:55.240Z,12.03
2018-07-12T10:43:27.081Z,15.63
2018-07-12T10:45:57.672Z,13.27
2018-07-12T10:48:28.563Z,27.47
2018-07-12T10:50:59.081Z,18.40
2018-07-12T10:53:29.509Z,17.07
2018-07-12T10:56:00.109Z,17.10
2018-07-12T10:58:30.702Z,19.20
2018-07-12T11:01:01.276Z,18.50
2018-07-12T11:03:31.972Z,19.80
2018-07-12T11:06:02.621Z,18.03
2018-07-12T11:08:33.507Z,17.70
2018-07-12T11:11:04.087Z,10.63
2018-07-12T11:13:45.668Z,9.87
2018-07-12T11:16:16.297Z,14.97
2018-07-12T11:18:46.971Z,14.00
2018-07-12T11:21:17.710Z,15.90
2018-07-12T11:23:54.167Z,8.37
2018-07-12T11:26:25.257Z,10.50
2018-07-12T11:28:55.807Z,10.87
2018-07-12T11:31:26.504Z,13.57
2018-07-12T11:33:57.007Z,10.03
2018-07-12T11:36:27.769Z,11.43
2018-07-12T11:38:58.275Z,12.23
2018-07-12T11:41:28.837Z,8.57
2018-07-12T11:43:58.702Z,8.73
2018-07-12T11:46:29.115Z,15.83
2018-07-12T11:48:59.554Z,19.67
2018-07-12T11:51:30.274Z,11.27
2018-07-12T11:54:00.852Z,18.33
2018-07-12T11:56:31.385Z,25.77
2018-07-12T11:59:03.327Z,14.13
2018-07-12T12:01:35.066Z,9.00
2018-07-12T12:04:05.619Z,17.13
2018-07-12T12:06:37.069Z,18.90
2018-07-12T12:09:07.956Z,17.00
2018-07-12T12:11:38.574Z,19.77
2018-07-12T12:14:09.173Z,8.67
2018-07-12T12:16:40.074Z,7.63
2018-07-12T12:19:10.779Z,12.30
2018-07-12T12:21:41.333Z,8.80
2018-07-12T12:24:11.925Z,10.17
2018-07-12T12:26:42.632Z,10.53
2018-07-12T12:29:13.262Z,6.87
2018-07-12T12:31:43.782Z,8.00
2018-07-12T12:34:14.948Z,12.90
2018-07-12T12:36:45.539Z,11.50
2018-07-12T12:39:15.892Z,9.67
2018-07-12T12:41:46.426Z,12.90
2018-07-12T12:44:16.408Z,9.80
2018-07-12T12:46:46.773Z,10.20
2018-07-12T12:49:17.394Z,7.50
2018-07-12T12:51:47.815Z,10.43
2018-07-12T12:54:18.498Z,13.23
2018-07-12T12:56:49.068Z,21.93
2018-07-12T12:59:19.635Z,22.10
2018-07-12T13:01:50.497Z,28.20
2018-07-12T13:04:20.825Z,22.83
2018-07-12T13:06:51.270Z,21.93
2018-07-12T13:09:21.934Z,12.40
2018-07-12T13:11:52.477Z,12.63
2018-07-12T13:14:23.069Z,12.27
2018-07-12T13:16:53.493Z,16.80
2018-07-12T13:19:24.053Z,13.30
2018-07-12T13:21:54.551Z,13.60
2018-07-12T13:24:25.089Z,11.73
2018-07-12T13:26:55.151Z,21.30
2018-07-12T13:29:25.708Z,13.67
2018-07-12T13:31:55.723Z,8.30
2018-07-12T13:34:26.111Z,9.97
2018-07-12T13:36:56.839Z,11.03
2018-07-12T13:39:27.370Z,12.73
2018-07-12T13:41:57.838Z,9.73
2018-07-12T13:44:28.270Z,7.77
2018-07-12T13:46:58.357Z,19.80
2018-07-12T13:49:28.707Z,12.90
2018-07-12T13:51:59.327Z,11.03
2018-07-12T13:54:29.880Z,14.60
2018-07-12T13:57:00.423Z,12.27
2018-07-12T13:59:30.969Z,12.67
2018-07-12T14:02:01.685Z,10.47
2018-07-12T14:04:32.258Z,9.07
2018-07-12T14:07:02.858Z,8.97
2018-07-12T14:09:33.448Z,9.60
2018-07-12T14:12:04.155Z,18.77
2018-07-12T14:14:34.862Z,19.10
2018-07-12T14:17:05.508Z,13.00
2018-07-12T14:19:35.964Z,17.10
2018-07-12T14:22:06.667Z,13.30
2018-07-12T14:24:37.351Z,7.73
2018-07-12T14:27:08.001Z,13.33
2018-07-12T14:29:38.458Z,11.30
2018-07-12T14:32:09.074Z,32.10
2018-07-12T14:34:39.663Z,23.00
2018-07-12T14:37:10.144Z,10.60
2018-07-12T14:39:40.632Z,24.03
2018-07-12T14:42:11.374Z,11.13
2018-07-12T14:44:41.839Z,10.53
2018-07-12T14:47:12.422Z,13.57
2018-07-12T14:49:42.954Z,12.30
2018-07-12T14:52:13.547Z,10.00
2018-07-12T14:54:44.110Z,7.17
2018-07-12T14:57:14.664Z,10.13
2018-07-12T14:59:45.482Z,30.67
2018-07-12T15:02:16.135Z,9.73
2018-07-12T15:04:46.598Z,13.43
2018-07-12T15:07:17.454Z,12.97
2018-07-12T15:09:48.154Z,10.97
2018-07-12T15:12:18.631Z,13.10
2018-07-12T15:14:49.279Z,12.77
2018-07-12T15:17:19.293Z,15.77
2018-07-12T15:19:49.770Z,21.23
2018-07-12T15:22:20.762Z,19.80
2018-07-12T15:24:51.501Z,13.17
2018-07-12T15:27:22.469Z,10.17
2018-07-12T15:29:53.514Z,8.83
2018-07-12T15:32:24.462Z,12.50
2018-07-12T15:34:55.556Z,18.97
2018-07-12T15:37:26.496Z,15.30
2018-07-12T15:39:57.316Z,11.47
2018-07-12T15:42:28.076Z,16.43
2018-07-12T15:44:58.694Z,11.63
2018-07-12T15:47:29.392Z,8.10
2018-07-12T15:50:00.036Z,16.30
2018-07-12T15:52:30.749Z,26.63
2018-07-12T15:55:00.855Z,10.30
2018-07-12T15:57:31.424Z,14.47
2018-07-12T16:00:02.452Z,18.00
2018-07-12T16:02:33.326Z,31.10
2018-07-12T16:05:04.022Z,18.70
2018-07-12T16:07:34.684Z,14.20
2018-07-12T16:10:05.322Z,21.23
2018-07-12T16:12:35.998Z,11.87
2018-07-12T16:15:07.209Z,24.00
2018-07-12T16:17:37.958Z,10.67
2018-07-12T16:20:08.564Z,14.37
2018-07-12T16:22:39.314Z,12.80
2018-07-12T16:25:10.139Z,7.83
2018-07-12T16:27:40.396Z,12.70
2018-07-12T16:30:11.342Z,17.77
2018-07-12T16:32:42.402Z,14.57
2018-07-12T16:35:12.700Z,12.47
2018-07-12T16:37:43.867Z,42.60
2018-07-12T16:40:14.924Z,18.13
2018-07-12T16:42:46.074Z,20.83
2018-07-12T16:45:16.971Z,17.70
2018-07-12T16:47:48.170Z,20.03
2018-07-12T16:50:19.546Z,24.47
2018-07-12T16:52:51.029Z,21.30
2018-07-12T16:55:22.431Z,22.63
2018-07-12T16:57:53.608Z,59.00
2018-07-12T17:00:24.895Z,41.53
2018-07-12T17:02:55.301Z,22.43
2018-07-12T17:05:26.901Z,26.93
2018-07-12T17:07:58.678Z,42.33
2018-07-12T17:10:30.774Z,27.23
2018-07-12T17:13:02.811Z,45.23
2018-07-12T17:15:34.260Z,45.60
2018-07-12T17:18:04.806Z,32.30
2018-07-12T17:20:36.605Z,26.53
2018-07-12T17:23:08.378Z,36.03
2018-07-12T17:25:39.778Z,46.60
2018-07-12T17:28:11.395Z,62.57
2018-07-12T17:30:42.633Z,75.97
2018-07-12T17:33:14.770Z,77.73
2018-07-12T17:35:46.320Z,54.83
2018-07-12T17:38:17.699Z,48.27
2018-07-12T17:40:48.144Z,51.97
2018-07-12T17:43:18.466Z,44.20
2018-07-12T17:45:50.166Z,42.70
2018-07-12T17:48:21.476Z,39.87
2018-07-12T17:50:53.617Z,47.13
2018-07-12T17:53:25.908Z,29.97
2018-07-12T17:55:58.470Z,38.83
2018-07-12T17:58:30.962Z,25.13
2018-07-12T18:01:03.471Z,34.20
2018-07-12T18:03:36.039Z,33.43
2018-07-12T18:06:08.656Z,31.97
2018-07-12T18:08:41.112Z,44.03
2018-07-12T18:11:13.646Z,37.43
2018-07-12T18:13:46.355Z,30.13
2018-07-12T18:16:18.965Z,30.13
2018-07-12T18:18:51.563Z,39.93
2018-07-12T18:21:24.075Z,38.30
2018-07-12T18:23:56.460Z,37.43
2018-07-12T18:26:28.996Z,35.00
2018-07-12T18:29:01.501Z,34.17
2018-07-12T18:31:33.891Z,24.73
2018-07-12T18:34:06.801Z,24.67
2018-07-12T18:36:39.468Z,18.90
2018-07-12T18:39:12.139Z,19.27
2018-07-12T18:41:44.618Z,24.80
2018-07-12T18:44:17.098Z,15.53
2018-07-12T18:46:48.484Z,15.43
2018-07-12T18:49:20.954Z,21.13
2018-07-12T18:51:53.480Z,18.80
2018-07-12T18:54:26.031Z,28.60
2018-07-12T18:56:58.670Z,21.47
2018-07-12T18:59:31.147Z,29.30
2018-07-12T19:02:03.538Z,25.43
2018-07-12T19:04:36.187Z,20.97
2018-07-12T19:07:08.910Z,28.53
2018-07-12T19:09:42.110Z,24.53
2018-07-12T19:12:14.912Z,27.57
2018-07-12T19:14:48.623Z,23.43
2018-07-12T19:17:21.185Z,21.50
2018-07-12T19:19:53.768Z,12.23
2018-07-12T19:22:26.571Z,16.37
2018-07-12T19:24:59.384Z,18.47
2018-07-12T19:27:30.727Z,11.07
2018-07-12T19:30:03.154Z,14.03
2018-07-12T19:32:35.364Z,15.03
2018-07-12T19:35:08.561Z,16.70
2018-07-12T19:37:41.595Z,24.33
2018-07-12T19:40:14.439Z,16.93
2018-07-12T19:42:47.038Z,18.07
2018-07-12T19:45:19.613Z,25.73
2018-07-12T19:47:54.522Z,22.13
2018-07-12T19:50:26.073Z,16.77
2018-07-12T19:52:58.454Z,22.90
2018-07-12T19:55:31.927Z,21.27
2018-07-12T19:58:04.531Z,23.47
2018-07-12T20:00:37.226Z,18.90
2018-07-12T20:03:08.662Z,24.53
2018-07-12T20:05:40.987Z,18.97
2018-07-12T20:08:13.667Z,27.47
2018-07-12T20:10:46.095Z,29.40
2018-07-12T20:13:18.645Z,31.50
2018-07-12T20:15:51.273Z,23.70
2018-07-12T20:18:23.689Z,21.80
2018-07-12T20:20:56.488Z,19.90
2018-07-12T20:23:28.966Z,24.13
2018-07-12T20:26:00.234Z,22.57
2018-07-12T20:28:32.805Z,18.43
2018-07-12T20:31:06.063Z,22.30
2018-07-12T20:33:38.675Z,21.27
2018-07-12T20:36:11.399Z,24.17
2018-07-12T20:38:44.036Z,27.50
2018-07-12T20:41:16.748Z,24.17
2018-07-12T20:43:49.686Z,16.50
2018-07-12T20:46:20.992Z,21.23
2018-07-12T20:48:53.210Z,22.70
2018-07-12T20:51:26.504Z,21.13
2018-07-12T20:53:59.283Z,16.27
2018-07-12T20:56:31.644Z,16.90
2018-07-12T20:59:04.294Z,15.20
2018-07-12T21:01:36.867Z,12.37
2018-07-12T21:04:09.576Z,13.20
2018-07-12T21:06:41.894Z,16.53
2018-07-12T21:09:14.647Z,11.53
2018-07-12T21:11:47.072Z,17.13
2018-07-12T21:14:21.072Z,16.47
2018-07-12T21:16:54.446Z,12.17
2018-07-12T21:19:26.951Z,11.07
2018-07-12T21:21:59.492Z,18.40
2018-07-12T21:24:31.939Z,11.57
2018-07-12T21:27:03.765Z,11.87
2018-07-12T21:29:36.169Z,10.83
2018-07-12T21:32:08.769Z,13.43
2018-07-12T21:34:41.187Z,17.80
2018-07-12T21:37:13.682Z,11.77
2018-07-12T21:39:45.895Z,18.03
2018-07-12T21:42:17.488Z,13.63
2018-07-12T21:44:48.833Z,12.37
2018-07-12T21:47:20.034Z,18.77
2018-07-12T21:49:50.169Z,11.27
2018-07-12T21:52:20.821Z,16.20
2018-07-12T21:54:51.686Z,13.23
2018-07-12T21:57:21.686Z,11.63
2018-07-12T21:59:52.269Z,18.97
2018-07-12T22:02:22.798Z,17.87
2018-07-12T22:04:53.547Z,22.20
2018-07-12T22:08:28.078Z,20.83
2018-07-12T22:11:05.969Z,15.90
2018-07-12T22:13:37.784Z,19.67
2018-07-12T22:16:08.440Z,19.27
2018-07-12T22:18:39.665Z,20.97
2018-07-12T22:21:10.281Z,20.13
2018-07-12T22:23:40.170Z,19.00
2018-07-12T22:26:10.520Z,23.73
2018-07-12T22:28:41.186Z,18.47
2018-07-12T22:31:11.936Z,18.03
2018-07-12T22:33:42.472Z,19.57
2018-07-12T22:36:13.040Z,20.00
2018-07-12T22:38:43.673Z,29.07
2018-07-12T22:41:14.319Z,25.57
2018-07-12T22:43:44.950Z,22.37
2018-07-12T22:46:15.523Z,18.63
2018-07-12T22:48:46.381Z,18.70
2018-07-12T22:51:16.924Z,25.43
2018-07-12T22:53:47.455Z,19.87
2018-07-12T22:56:18.010Z,22.07
2018-07-12T22:58:48.616Z,16.67
2018-07-12T23:01:19.070Z,19.40
2018-07-12T23:03:49.000Z,15.90
2018-07-12T23:06:19.433Z,23.47
2018-07-12T23:08:49.853Z,16.67
2018-07-12T23:11:20.337Z,15.77
2018-07-12T23:13:50.900Z,18.60
2018-07-12T23:16:22.393Z,18.27
2018-07-12T23:18:52.423Z,18.73
2018-07-12T23:21:22.873Z,18.03
2018-07-12T23:23:53.479Z,15.20
2018-07-12T23:26:24.226Z,16.97
2018-07-12T23:28:54.738Z,18.93
2018-07-12T23:31:25.685Z,13.17
2018-07-12T23:33:55.736Z,15.97
2018-07-12T23:36:26.289Z,13.67
2018-07-12T23:38:56.758Z,17.83
2018-07-12T23:41:27.292Z,21.33
2018-07-12T23:43:57.738Z,17.60
2018-07-12T23:46:28.273Z,18.23
2018-07-12T23:48:58.845Z,17.33
2018-07-12T23:51:29.554Z,15.43
2018-07-12T23:53:59.455Z,14.70
2018-07-12T23:56:30.248Z,16.17
2018-07-12T23:59:00.465Z,12.87
